PWSweather.com
Personal Weather Stations
Station Observations
60DEGNUK
Firth, MossbankGB ZE2 9TF

FirthMossbankGB ZE2 9TF

Lat: 60.448922, Lon: -1.19346

Elevation: 60

Station Type: Watson

Latest ConditionsUpdated 9:15:00 AM GMT Friday, Feb 22, 2019
Currently Today's Max Today's Min Today's Average
Temperature 50.9°F10.5°C 51.3°F10.7°C 44.6°F7.0°C 47.2°F8.4°C
Dew Point 41.1°F5.1°C 43.1°F6.2°C 40.3°F4.6°C 41.9°F5.5°C
Winds 21.0 mph SW33.8 kmh SW 22.1 mph -35.6 kmh - - 6.7 mph 10.8 kmh
Wind Gusts 32.0 mph51.5 kmh 32.7 mph52.6 kmh - -
Humidity 69% 90% 68% 82%
Pressure 29.71 in1006.1 mb 29.71 in1006.1 mb 29.66 in1004.4 mb -
Hour Temp Dew Point Humidity Winds Wind Gusts Pressure Precip Precip Rate Daily Precip Total
09:15 AM 50.9°F10.5°C 41.1°F5.1°C 69% 21.0 mph SW33.8 kmh SW 32.0 mph51.5 kmh 29.71 in1006.1 mb 0.00 in0.0 mm 0.00 in0.0 mm 0.00 in0.0 mm
09:10 AM 51.3°F10.7°C 41.1°F5.1°C 68% 20.6 mph WSW33.2 kmh WSW 28.2 mph45.4 kmh 29.70 in1005.8 mb 0.00 in0.0 mm 0.00 in0.0 mm 0.00 in0.0 mm
09:05 AM 50.9°F10.5°C 41.1°F5.1°C 69% 19.8 mph WSW31.9 kmh WSW 28.2 mph45.4 kmh 29.69 in1005.4 mb 0.00 in0.0 mm 0.00 in0.0 mm 0.00 in0.0 mm
09:00 AM 50.5°F10.3°C 41.1°F5.1°C 70% 19.1 mph WSW30.7 kmh WSW 26.6 mph42.8 kmh 29.69 in1005.4 mb 0.00 in0.0 mm 0.00 in0.0 mm 0.00 in0.0 mm
08:55 AM 50.4°F10.2°C 41.0°F5.0°C 70% 20.3 mph WSW32.7 kmh WSW 29.8 mph48.0 kmh 29.69 in1005.4 mb 0.00 in0.0 mm 0.00 in0.0 mm 0.00 in0.0 mm
08:50 AM 50.2°F10.1°C 40.8°F4.9°C 70% 22.1 mph WSW35.6 kmh WSW 32.7 mph52.6 kmh 29.70 in1005.8 mb 0.00 in0.0 mm 0.00 in0.0 mm 0.00 in0.0 mm
08:45 AM 50.4°F10.2°C 41.0°F5.0°C 70% 20.8 mph WSW33.5 kmh WSW 32.7 mph52.6 kmh 29.70 in1005.8 mb 0.00 in0.0 mm 0.00 in0.0 mm 0.00 in0.0 mm
08:40 AM 50.5°F10.3°C 40.8°F4.9°C 69% 17.8 mph WSW28.6 kmh WSW 28.2 mph45.4 kmh 29.69 in1005.4 mb 0.00 in0.0 mm 0.00 in0.0 mm 0.00 in0.0 mm
08:35 AM 50.5°F10.3°C 41.1°F5.1°C 70% 14.7 mph WSW23.7 kmh WSW 24.4 mph39.3 kmh 29.68 in1005.1 mb 0.00 in0.0 mm 0.00 in0.0 mm 0.00 in0.0 mm
08:30 AM 50.0°F10.0°C 41.0°F5.0°C 71% 14.1 mph WSW22.7 kmh WSW 24.4 mph39.3 kmh 29.68 in1005.1 mb 0.00 in0.0 mm 0.00 in0.0 mm 0.00 in0.0 mm
08:25 AM 50.0°F10.0°C 40.6°F4.8°C 70% 17.5 mph WSW28.2 kmh WSW 26.6 mph42.8 kmh 29.67 in1004.7 mb 0.00 in0.0 mm 0.00 in0.0 mm 0.00 in0.0 mm
08:20 AM 49.5°F9.7°C 40.5°F4.7°C 71% 19.5 mph WSW31.4 kmh WSW 28.9 mph46.5 kmh 29.66 in1004.4 mb 0.00 in0.0 mm 0.00 in0.0 mm 0.00 in0.0 mm
08:15 AM 48.9°F9.4°C 40.3°F4.6°C 72% 19.0 mph SW30.6 kmh SW 28.9 mph46.5 kmh 29.66 in1004.4 mb 0.00 in0.0 mm 0.00 in0.0 mm 0.00 in0.0 mm
08:10 AM 48.4°F9.1°C 40.5°F4.7°C 74% 17.8 mph SW28.6 kmh SW 26.6 mph42.8 kmh 29.66 in1004.4 mb 0.00 in0.0 mm 0.00 in0.0 mm 0.00 in0.0 mm
08:05 AM 47.8°F8.8°C 40.6°F4.8°C 76% 17.2 mph SW27.7 kmh SW 26.6 mph42.8 kmh 29.67 in1004.7 mb 0.00 in0.0 mm 0.00 in0.0 mm 0.00 in0.0 mm
08:00 AM 47.7°F8.7°C 41.1°F5.1°C 78% 17.6 mph WSW28.3 kmh WSW 27.3 mph43.9 kmh 29.67 in1004.7 mb 0.00 in0.0 mm 0.00 in0.0 mm 0.00 in0.0 mm
07:55 AM 47.3°F8.5°C 41.8°F5.4°C 81% 16.3 mph WSW26.2 kmh WSW 27.3 mph43.9 kmh 29.68 in1005.1 mb 0.00 in0.0 mm 0.00 in0.0 mm 0.00 in0.0 mm
07:50 AM 46.6°F8.1°C 42.0°F5.6°C 84% 13.9 mph SW22.4 kmh SW 23.5 mph37.8 kmh 29.69 in1005.4 mb 0.00 in0.0 mm 0.00 in0.0 mm 0.00 in0.0 mm
07:45 AM 46.0°F7.8°C 41.5°F5.3°C 84% 10.4 mph SSW16.7 kmh SSW 22.8 mph36.7 kmh 29.68 in1005.1 mb 0.00 in0.0 mm 0.00 in0.0 mm 0.00 in0.0 mm
07:40 AM 45.9°F7.7°C 41.3°F5.2°C 84% 7.3 mph SSW11.7 kmh SSW 15.2 mph24.5 kmh 29.66 in1004.4 mb 0.00 in0.0 mm 0.00 in0.0 mm 0.00 in0.0 mm
07:35 AM 45.5°F7.5°C 41.0°F5.0°C 84% 4.5 mph SSW7.2 kmh SSW 13.0 mph20.9 kmh 29.67 in1004.7 mb 0.00 in0.0 mm 0.00 in0.0 mm 0.00 in0.0 mm
07:30 AM 45.1°F7.3°C 42.4°F5.8°C 90% 1.6 mph SSE2.6 kmh SSE 8.3 mph13.4 kmh 29.67 in1004.7 mb 0.00 in0.0 mm 0.00 in0.0 mm 0.00 in0.0 mm
07:25 AM 45.0°F7.2°C 42.2°F5.7°C 90% 0.4 mph ESE0.6 kmh ESE 3.1 mph5.0 kmh 29.68 in1005.1 mb 0.00 in0.0 mm 0.00 in0.0 mm 0.00 in0.0 mm
07:20 AM 45.3°F7.4°C 42.6°F5.9°C 90% 1.3 mph S2.1 kmh S 6.0 mph9.7 kmh 29.68 in1005.1 mb 0.00 in0.0 mm 0.00 in0.0 mm 0.00 in0.0 mm
07:15 AM 45.3°F7.4°C 42.6°F5.9°C 90% 1.3 mph S2.1 kmh S 6.0 mph9.7 kmh 29.69 in1005.4 mb 0.00 in0.0 mm 0.00 in0.0 mm 0.00 in0.0 mm
07:10 AM 45.3°F7.4°C 42.6°F5.9°C 90% 2.8 mph SSW4.5 kmh SSW 11.4 mph18.3 kmh 29.69 in1005.4 mb 0.00 in0.0 mm 0.00 in0.0 mm 0.00 in0.0 mm
07:05 AM 45.7°F7.6°C 41.1°F5.1°C 84% 6.6 mph S10.6 kmh S 14.5 mph23.3 kmh 29.69 in1005.4 mb 0.00 in0.0 mm 0.00 in0.0 mm 0.00 in0.0 mm
07:00 AM 45.5°F7.5°C 41.0°F5.0°C 84% 5.9 mph S9.5 kmh S 14.5 mph23.3 kmh 29.67 in1004.7 mb 0.00 in0.0 mm 0.00 in0.0 mm 0.00 in0.0 mm
06:55 AM 45.1°F7.3°C 42.4°F5.8°C 90% 3.7 mph SE6.0 kmh SE 10.7 mph17.2 kmh 29.66 in1004.4 mb 0.00 in0.0 mm 0.00 in0.0 mm 0.00 in0.0 mm
06:50 AM 44.8°F7.1°C 42.0°F5.6°C 90% 3.0 mph SSE4.8 kmh SSE 10.7 mph17.2 kmh 29.66 in1004.4 mb 0.00 in0.0 mm 0.00 in0.0 mm 0.00 in0.0 mm
06:45 AM 44.6°F7.0°C 41.6°F5.3°C 89% 2.0 mph SSE3.2 kmh SSE 5.4 mph8.7 kmh 29.67 in1004.7 mb 0.00 in0.0 mm 0.00 in0.0 mm 0.00 in0.0 mm
06:40 AM 44.6°F7.0°C 41.6°F5.3°C 89% 2.5 mph S4.0 kmh S 5.4 mph8.7 kmh 29.69 in1005.4 mb 0.00 in0.0 mm 0.00 in0.0 mm 0.00 in0.0 mm
06:35 AM 44.6°F7.0°C 41.6°F5.3°C 89% 3.2 mph SW5.1 kmh SW 6.0 mph9.7 kmh 29.69 in1005.4 mb 0.00 in0.0 mm 0.00 in0.0 mm 0.00 in0.0 mm
06:30 AM 44.8°F7.1°C 41.7°F5.4°C 89% 4.4 mph SSW7.1 kmh SSW 9.8 mph15.8 kmh 29.70 in1005.8 mb 0.00 in0.0 mm 0.00 in0.0 mm 0.00 in0.0 mm
06:25 AM 45.1°F7.3°C 42.4°F5.8°C 90% 5.3 mph S8.5 kmh S 9.8 mph15.8 kmh 29.70 in1005.8 mb 0.00 in0.0 mm 0.00 in0.0 mm 0.00 in0.0 mm
06:20 AM 45.3°F7.4°C 42.6°F5.9°C 90% 5.9 mph S9.5 kmh S 10.7 mph17.2 kmh 29.69 in1005.4 mb 0.00 in0.0 mm 0.00 in0.0 mm 0.00 in0.0 mm
06:15 AM 45.5°F7.5°C 41.0°F5.0°C 84% 6.5 mph S10.5 kmh S 10.7 mph17.2 kmh 29.69 in1005.4 mb 0.00 in0.0 mm 0.00 in0.0 mm 0.00 in0.0 mm
06:10 AM 45.3°F7.4°C 42.6°F5.9°C 90% 6.1 mph SSW9.8 kmh SSW 10.7 mph17.2 kmh 29.68 in1005.1 mb 0.00 in0.0 mm 0.00 in0.0 mm 0.00 in0.0 mm
06:05 AM 45.1°F7.3°C 42.4°F5.8°C 90% 5.0 mph SSW8.0 kmh SSW 9.2 mph14.8 kmh 29.68 in1005.1 mb 0.00 in0.0 mm 0.00 in0.0 mm 0.00 in0.0 mm
06:00 AM 45.1°F7.3°C 42.1°F5.6°C 89% 4.4 mph SSW7.1 kmh SSW 8.3 mph13.4 kmh 29.67 in1004.7 mb 0.00 in0.0 mm 0.00 in0.0 mm 0.00 in0.0 mm
05:55 AM 45.1°F7.3°C 42.1°F5.6°C 89% 4.3 mph SSW6.9 kmh SSW 8.3 mph13.4 kmh 29.67 in1004.7 mb 0.00 in0.0 mm 0.00 in0.0 mm 0.00 in0.0 mm
05:50 AM 45.3°F7.4°C 42.6°F5.9°C 90% 3.4 mph S5.5 kmh S 6.9 mph11.1 kmh 29.68 in1005.1 mb 0.00 in0.0 mm 0.00 in0.0 mm 0.00 in0.0 mm
05:45 AM 45.5°F7.5°C 41.0°F5.0°C 84% 1.5 mph S2.4 kmh S 6.9 mph11.1 kmh 29.67 in1004.7 mb 0.00 in0.0 mm 0.00 in0.0 mm 0.00 in0.0 mm
05:40 AM 45.7°F7.6°C 41.1°F5.1°C 84% 0.5 mph WSW0.8 kmh WSW 3.1 mph5.0 kmh 29.68 in1005.1 mb 0.00 in0.0 mm 0.00 in0.0 mm 0.00 in0.0 mm
05:35 AM 45.9°F7.7°C 41.3°F5.2°C 84% 0.6 mph SW1.0 kmh SW 3.8 mph6.1 kmh 29.68 in1005.1 mb 0.00 in0.0 mm 0.00 in0.0 mm 0.00 in0.0 mm
05:30 AM 46.0°F7.8°C 41.5°F5.3°C 84% 1.5 mph SW2.4 kmh SW 5.4 mph8.7 kmh 29.68 in1005.1 mb 0.00 in0.0 mm 0.00 in0.0 mm 0.00 in0.0 mm
05:25 AM 46.2°F7.9°C 41.7°F5.4°C 84% 3.3 mph SW5.3 kmh SW 6.9 mph11.1 kmh 29.68 in1005.1 mb 0.00 in0.0 mm 0.00 in0.0 mm 0.00 in0.0 mm
05:20 AM 46.2°F7.9°C 41.7°F5.4°C 84% 3.9 mph S6.3 kmh S 6.9 mph11.1 kmh 29.68 in1005.1 mb 0.00 in0.0 mm 0.00 in0.0 mm 0.00 in0.0 mm
05:15 AM 46.4°F8.0°C 41.8°F5.4°C 84% 4.6 mph S7.4 kmh S 9.2 mph14.8 kmh 29.68 in1005.1 mb 0.00 in0.0 mm 0.00 in0.0 mm 0.00 in0.0 mm
05:10 AM 46.4°F8.0°C 41.8°F5.4°C 84% 4.9 mph S7.9 kmh S 9.8 mph15.8 kmh 29.68 in1005.1 mb 0.00 in0.0 mm 0.00 in0.0 mm 0.00 in0.0 mm
05:05 AM 46.6°F8.1°C 42.0°F5.6°C 84% 2.6 mph S4.2 kmh S 9.8 mph15.8 kmh 29.68 in1005.1 mb 0.00 in0.0 mm 0.00 in0.0 mm 0.00 in0.0 mm
05:00 AM 46.8°F8.2°C 42.2°F5.7°C 84% 0.3 mph SSW0.5 kmh SSW 3.8 mph6.1 kmh 29.69 in1005.4 mb 0.00 in0.0 mm 0.00 in0.0 mm 0.00 in0.0 mm
04:55 AM 46.8°F8.2°C 42.2°F5.7°C 84% 0.1 mph SE0.2 kmh SE 1.6 mph2.6 kmh 29.69 in1005.4 mb 0.00 in0.0 mm 0.00 in0.0 mm 0.00 in0.0 mm
04:50 AM 46.8°F8.2°C 42.2°F5.7°C 84% 0.1 mph SE0.2 kmh SE 1.6 mph2.6 kmh 29.69 in1005.4 mb 0.00 in0.0 mm 0.00 in0.0 mm 0.00 in0.0 mm
04:45 AM 46.8°F8.2°C 42.2°F5.7°C 84% 0.8 mph S1.3 kmh S 3.8 mph6.1 kmh 29.69 in1005.4 mb 0.00 in0.0 mm 0.00 in0.0 mm 0.00 in0.0 mm
04:40 AM 46.8°F8.2°C 42.2°F5.7°C 84% 2.3 mph S3.7 kmh S 6.9 mph11.1 kmh 29.69 in1005.4 mb 0.00 in0.0 mm 0.00 in0.0 mm 0.00 in0.0 mm
04:35 AM 46.8°F8.2°C 42.2°F5.7°C 84% 3.6 mph S5.8 kmh S 8.3 mph13.4 kmh 29.68 in1005.1 mb 0.00 in0.0 mm 0.00 in0.0 mm 0.00 in0.0 mm
04:30 AM 46.8°F8.2°C 42.2°F5.7°C 84% 4.3 mph S6.9 kmh S 8.3 mph13.4 kmh 29.68 in1005.1 mb 0.00 in0.0 mm 0.00 in0.0 mm 0.00 in0.0 mm
04:25 AM 46.8°F8.2°C 42.2°F5.7°C 84% 4.4 mph S7.1 kmh S 9.2 mph14.8 kmh 29.68 in1005.1 mb 0.00 in0.0 mm 0.00 in0.0 mm 0.00 in0.0 mm
04:20 AM 46.8°F8.2°C 42.2°F5.7°C 84% 4.7 mph SSW7.6 kmh SSW 9.2 mph14.8 kmh 29.68 in1005.1 mb 0.00 in0.0 mm 0.00 in0.0 mm 0.00 in0.0 mm
04:15 AM 46.8°F8.2°C 41.9°F5.5°C 83% 3.4 mph SW5.5 kmh SW 9.2 mph14.8 kmh 29.68 in1005.1 mb 0.00 in0.0 mm 0.00 in0.0 mm 0.00 in0.0 mm
04:10 AM 46.8°F8.2°C 41.9°F5.5°C 83% 2.9 mph S4.7 kmh S 8.3 mph13.4 kmh 29.67 in1004.7 mb 0.00 in0.0 mm 0.00 in0.0 mm 0.00 in0.0 mm
04:05 AM 46.9°F8.3°C 42.1°F5.6°C 83% 2.3 mph S3.7 kmh S 8.3 mph13.4 kmh 29.68 in1005.1 mb 0.00 in0.0 mm 0.00 in0.0 mm 0.00 in0.0 mm
04:00 AM 47.1°F8.4°C 42.2°F5.7°C 83% 1.2 mph ESE1.9 kmh ESE 4.5 mph7.2 kmh 29.68 in1005.1 mb 0.00 in0.0 mm 0.00 in0.0 mm 0.00 in0.0 mm
03:55 AM 46.9°F8.3°C 42.1°F5.6°C 83% 2.0 mph E3.2 kmh E 7.6 mph12.2 kmh 29.68 in1005.1 mb 0.00 in0.0 mm 0.00 in0.0 mm 0.00 in0.0 mm
03:50 AM 46.8°F8.2°C 41.9°F5.5°C 83% 3.4 mph S5.5 kmh S 9.8 mph15.8 kmh 29.67 in1004.7 mb 0.00 in0.0 mm 0.00 in0.0 mm 0.00 in0.0 mm
03:45 AM 46.9°F8.3°C 42.1°F5.6°C 83% 5.7 mph S9.2 kmh S 11.4 mph18.3 kmh 29.68 in1005.1 mb 0.00 in0.0 mm 0.00 in0.0 mm 0.00 in0.0 mm
03:40 AM 46.9°F8.3°C 42.1°F5.6°C 83% 6.9 mph S11.1 kmh S 11.4 mph18.3 kmh 29.67 in1004.7 mb 0.00 in0.0 mm 0.00 in0.0 mm 0.00 in0.0 mm
03:35 AM 46.9°F8.3°C 42.1°F5.6°C 83% 7.9 mph SSW12.7 kmh SSW 13.6 mph21.9 kmh 29.68 in1005.1 mb 0.00 in0.0 mm 0.00 in0.0 mm 0.00 in0.0 mm
03:30 AM 46.9°F8.3°C 42.1°F5.6°C 83% 9.2 mph S14.8 kmh S 13.6 mph21.9 kmh 29.68 in1005.1 mb 0.00 in0.0 mm 0.00 in0.0 mm 0.00 in0.0 mm
03:25 AM 47.1°F8.4°C 41.9°F5.5°C 82% 9.2 mph S14.8 kmh S 14.5 mph23.3 kmh 29.68 in1005.1 mb 0.00 in0.0 mm 0.00 in0.0 mm 0.00 in0.0 mm
03:20 AM 47.1°F8.4°C 41.9°F5.5°C 82% 8.4 mph S13.5 kmh S 14.5 mph23.3 kmh 29.68 in1005.1 mb 0.00 in0.0 mm 0.00 in0.0 mm 0.00 in0.0 mm
03:15 AM 47.3°F8.5°C 42.1°F5.6°C 82% 6.8 mph SW10.9 kmh SW 13.6 mph21.9 kmh 29.69 in1005.4 mb 0.00 in0.0 mm 0.00 in0.0 mm 0.00 in0.0 mm
03:10 AM 47.3°F8.5°C 42.1°F5.6°C 82% 6.3 mph SW10.1 kmh SW 11.4 mph18.3 kmh 29.69 in1005.4 mb 0.00 in0.0 mm 0.00 in0.0 mm 0.00 in0.0 mm
03:05 AM 47.3°F8.5°C 42.1°F5.6°C 82% 6.7 mph S10.8 kmh S 11.4 mph18.3 kmh 29.69 in1005.4 mb 0.00 in0.0 mm 0.00 in0.0 mm 0.00 in0.0 mm
03:00 AM 47.5°F8.6°C 42.3°F5.7°C 82% 7.6 mph S12.2 kmh S 13.6 mph21.9 kmh 29.69 in1005.4 mb 0.00 in0.0 mm 0.00 in0.0 mm 0.00 in0.0 mm
02:55 AM 47.7°F8.7°C 42.4°F5.8°C 82% 9.2 mph S14.8 kmh S 14.5 mph23.3 kmh 29.69 in1005.4 mb 0.00 in0.0 mm 0.00 in0.0 mm 0.00 in0.0 mm
02:50 AM 47.7°F8.7°C 42.4°F5.8°C 82% 8.8 mph S14.2 kmh S 14.5 mph23.3 kmh 29.69 in1005.4 mb 0.00 in0.0 mm 0.00 in0.0 mm 0.00 in0.0 mm
02:45 AM 47.7°F8.7°C 42.4°F5.8°C 82% 7.6 mph SSW12.2 kmh SSW 13.6 mph21.9 kmh 29.69 in1005.4 mb 0.00 in0.0 mm 0.00 in0.0 mm 0.00 in0.0 mm
02:40 AM 47.5°F8.6°C 42.3°F5.7°C 82% 6.4 mph S10.3 kmh S 13.6 mph21.9 kmh 29.69 in1005.4 mb 0.00 in0.0 mm 0.00 in0.0 mm 0.00 in0.0 mm
02:35 AM 47.1°F8.4°C 41.6°F5.3°C 81% 3.2 mph S5.1 kmh S 9.8 mph15.8 kmh 29.70 in1005.8 mb 0.00 in0.0 mm 0.00 in0.0 mm 0.00 in0.0 mm
02:30 AM 46.9°F8.3°C 41.4°F5.2°C 81% 0.7 mph S1.1 kmh S 8.3 mph13.4 kmh 29.69 in1005.4 mb 0.00 in0.0 mm 0.00 in0.0 mm 0.00 in0.0 mm
02:25 AM 47.3°F8.5°C 41.8°F5.4°C 81% 0.4 mph NE0.6 kmh NE 3.1 mph5.0 kmh 29.69 in1005.4 mb 0.00 in0.0 mm 0.00 in0.0 mm 0.00 in0.0 mm
02:20 AM 47.3°F8.5°C 41.8°F5.4°C 81% 1.0 mph SE1.6 kmh SE 4.5 mph7.2 kmh 29.69 in1005.4 mb 0.00 in0.0 mm 0.00 in0.0 mm 0.00 in0.0 mm
02:15 AM 47.7°F8.7°C 42.1°F5.6°C 81% 3.3 mph S5.3 kmh S 8.3 mph13.4 kmh 29.69 in1005.4 mb 0.00 in0.0 mm 0.00 in0.0 mm 0.00 in0.0 mm
02:10 AM 47.8°F8.8°C 42.3°F5.7°C 81% 5.0 mph S8.0 kmh S 8.3 mph13.4 kmh 29.68 in1005.1 mb 0.00 in0.0 mm 0.00 in0.0 mm 0.00 in0.0 mm
02:05 AM 47.8°F8.8°C 42.3°F5.7°C 81% 4.8 mph S7.7 kmh S 9.2 mph14.8 kmh 29.68 in1005.1 mb 0.00 in0.0 mm 0.00 in0.0 mm 0.00 in0.0 mm
02:00 AM 47.8°F8.8°C 42.3°F5.7°C 81% 4.8 mph S7.7 kmh S 9.2 mph14.8 kmh 29.68 in1005.1 mb 0.00 in0.0 mm 0.00 in0.0 mm 0.00 in0.0 mm
01:55 AM 48.0°F8.9°C 42.5°F5.8°C 81% 4.7 mph S7.6 kmh S 7.6 mph12.2 kmh 29.68 in1005.1 mb 0.00 in0.0 mm 0.00 in0.0 mm 0.00 in0.0 mm
01:50 AM 48.0°F8.9°C 42.8°F6.0°C 82% 4.9 mph SSW7.9 kmh SSW 9.8 mph15.8 kmh 29.67 in1004.7 mb 0.00 in0.0 mm 0.00 in0.0 mm 0.00 in0.0 mm
01:45 AM 48.2°F9.0°C 43.0°F6.1°C 82% 5.4 mph S8.7 kmh S 9.8 mph15.8 kmh 29.68 in1005.1 mb 0.00 in0.0 mm 0.00 in0.0 mm 0.00 in0.0 mm
01:40 AM 48.2°F9.0°C 43.0°F6.1°C 82% 5.8 mph S9.3 kmh S 9.2 mph14.8 kmh 29.69 in1005.4 mb 0.00 in0.0 mm 0.00 in0.0 mm 0.00 in0.0 mm
01:35 AM 48.2°F9.0°C 43.0°F6.1°C 82% 6.0 mph SSW9.7 kmh SSW 9.2 mph14.8 kmh 29.69 in1005.4 mb 0.00 in0.0 mm 0.00 in0.0 mm 0.00 in0.0 mm
01:30 AM 48.4°F9.1°C 43.1°F6.2°C 82% 6.1 mph S9.8 kmh S 11.4 mph18.3 kmh 29.69 in1005.4 mb 0.00 in0.0 mm 0.00 in0.0 mm 0.00 in0.0 mm
01:25 AM 48.4°F9.1°C 43.1°F6.2°C 82% 6.2 mph S10.0 kmh S 11.4 mph18.3 kmh 29.68 in1005.1 mb 0.00 in0.0 mm 0.00 in0.0 mm 0.00 in0.0 mm
01:20 AM 48.4°F9.1°C 43.1°F6.2°C 82% 5.6 mph S9.0 kmh S 9.8 mph15.8 kmh 29.68 in1005.1 mb 0.00 in0.0 mm 0.00 in0.0 mm 0.00 in0.0 mm
01:15 AM 48.2°F9.0°C 42.6°F5.9°C 81% 5.7 mph S9.2 kmh S 9.8 mph15.8 kmh 29.68 in1005.1 mb 0.00 in0.0 mm 0.00 in0.0 mm 0.00 in0.0 mm
01:10 AM 48.2°F9.0°C 42.6°F5.9°C 81% 6.0 mph S9.7 kmh S 10.7 mph17.2 kmh 29.68 in1005.1 mb 0.00 in0.0 mm 0.00 in0.0 mm 0.00 in0.0 mm
01:05 AM 48.0°F8.9°C 42.5°F5.8°C 81% 6.0 mph SSE9.7 kmh SSE 10.7 mph17.2 kmh 29.68 in1005.1 mb 0.00 in0.0 mm 0.00 in0.0 mm 0.00 in0.0 mm
01:00 AM 47.8°F8.8°C 42.3°F5.7°C 81% 5.7 mph S9.2 kmh S 10.7 mph17.2 kmh 29.68 in1005.1 mb 0.00 in0.0 mm 0.00 in0.0 mm 0.00 in0.0 mm
12:55 AM 47.8°F8.8°C 42.3°F5.7°C 81% 5.0 mph S8.0 kmh S 9.2 mph14.8 kmh 29.68 in1005.1 mb 0.00 in0.0 mm 0.00 in0.0 mm 0.00 in0.0 mm
12:50 AM 47.8°F8.8°C 42.3°F5.7°C 81% 5.0 mph S8.0 kmh S 9.2 mph14.8 kmh 29.68 in1005.1 mb 0.00 in0.0 mm 0.00 in0.0 mm 0.00 in0.0 mm
12:45 AM 48.0°F8.9°C 42.5°F5.8°C 81% 4.9 mph S7.9 kmh S 9.2 mph14.8 kmh 29.68 in1005.1 mb 0.00 in0.0 mm 0.00 in0.0 mm 0.00 in0.0 mm
12:40 AM 48.0°F8.9°C 42.2°F5.7°C 80% 5.2 mph SSW8.4 kmh SSW 9.8 mph15.8 kmh 29.68 in1005.1 mb 0.00 in0.0 mm 0.00 in0.0 mm 0.00 in0.0 mm
12:35 AM 48.2°F9.0°C 42.3°F5.7°C 80% 5.8 mph SSW9.3 kmh SSW 9.8 mph15.8 kmh 29.68 in1005.1 mb 0.00 in0.0 mm 0.00 in0.0 mm 0.00 in0.0 mm
12:30 AM 48.2°F9.0°C 42.3°F5.7°C 80% 5.5 mph S8.9 kmh S 9.2 mph14.8 kmh 29.68 in1005.1 mb 0.00 in0.0 mm 0.00 in0.0 mm 0.00 in0.0 mm
12:25 AM 48.0°F8.9°C 42.2°F5.7°C 80% 6.2 mph S10.0 kmh S 12.1 mph19.5 kmh 29.68 in1005.1 mb 0.00 in0.0 mm 0.00 in0.0 mm 0.00 in0.0 mm
12:20 AM 48.2°F9.0°C 42.3°F5.7°C 80% 7.0 mph S11.3 kmh S 12.1 mph19.5 kmh 29.68 in1005.1 mb 0.00 in0.0 mm 0.00 in0.0 mm 0.00 in0.0 mm
12:15 AM 48.2°F9.0°C 42.0°F5.6°C 79% 6.2 mph S10.0 kmh S 10.7 mph17.2 kmh 29.68 in1005.1 mb 0.00 in0.0 mm 0.00 in0.0 mm 0.00 in0.0 mm
12:10 AM 48.2°F9.0°C 42.0°F5.6°C 79% 5.3 mph S8.5 kmh S 9.8 mph15.8 kmh 29.68 in1005.1 mb 0.00 in0.0 mm 0.00 in0.0 mm 0.00 in0.0 mm
12:05 AM 48.4°F9.1°C 42.2°F5.7°C 79% 4.6 mph SSW7.4 kmh SSW 9.8 mph15.8 kmh 29.68 in1005.1 mb 0.00 in0.0 mm 0.00 in0.0 mm 0.00 in0.0 mm
12:00 AM 48.4°F9.1°C 41.8°F5.4°C 78% 4.1 mph SSW6.6 kmh SSW 8.3 mph13.4 kmh 29.68 in1005.1 mb 0.00 in0.0 mm 0.00 in0.0 mm 0.00 in0.0 mm